Terminal Aerodrome Forecast
Issued by NWS

Home | Current Version | Previous Version | Text Only | Print | Product List | Glossary On
Versions: 1 2 3 4 5 6 7 8 9 10 11 12 13
000
FTUS45 KVEF 041720
TAFDAG
TAF
KDAG 041720Z 0418/0518 28011KT P6SM SCT100 BKN150
     FM041900 28011G18KT P6SM SCT100 BKN150
     FM050100 25017G25KT P6SM FEW100=

USA.gov is the U.S. government's official web portal to all federal, state and local government web resources and services.